Time;durP1;ratioP1;P1;durP2;ratioP2;P2;SDS_P1;SDS_P2;PMS_P1;PMS_P2;Temp;Humidity;BMP_temperature;BMP_pressure;BME280_temperature;BME280_humidity;BME280_pressure;Samples;Min_cycle;Max_cycle;Signal;HPM_P1;HPM_P2
2022/03/07 00:00:03;;;;;;;5.28;3.22;;;;;;;0.30;100.00;94657.66;5110095;28;20036;-47
2022/03/07 00:02:31;;;;;;;5.43;2.67;;;;;;;0.30;100.00;94657.66;5110897;28;20051;-46
2022/03/07 00:04:58;;;;;;;5.70;3.17;;;;;;;0.31;100.00;94664.41;5106664;28;20069;-49
2022/03/07 00:07:24;;;;;;;6.28;3.55;;;;;;;0.31;100.00;94664.41;5106781;28;20039;-46
2022/03/07 00:09:51;;;;;;;6.72;3.15;;;;;;;0.37;100.00;94673.94;5113098;28;20108;-46
2022/03/07 00:12:18;;;;;;;5.00;2.78;;;;;;;0.38;100.00;94678.91;5110991;28;20420;-47
2022/03/07 00:14:44;;;;;;;4.28;2.75;;;;;;;0.45;100.00;94673.91;5110331;28;20408;-47
2022/03/07 00:17:11;;;;;;;4.75;2.38;;;;;;;0.46;100.00;94667.78;5113124;28;20055;-45
2022/03/07 00:19:38;;;;;;;5.93;2.95;;;;;;;0.47;100.00;94669.41;5105768;28;20043;-47
2022/03/07 00:22:05;;;;;;;5.20;3.25;;;;;;;0.48;100.00;94670.97;5113989;28;20047;-48
2022/03/07 00:24:32;;;;;;;7.20;2.90;;;;;;;0.50;100.00;94669.03;5111022;28;20437;-47
2022/03/07 00:26:59;;;;;;;6.97;3.45;;;;;;;0.50;100.00;94669.03;5111074;28;20462;-49
2022/03/07 00:29:27;;;;;;;6.65;3.00;;;;;;;0.52;100.00;94662.00;5107823;28;20103;-48
2022/03/07 00:31:54;;;;;;;4.97;3.25;;;;;;;0.53;100.00;94660.22;5108720;28;20054;-47
2022/03/07 00:34:21;;;;;;;5.95;3.83;;;;;;;0.55;100.00;94666.75;5088968;28;20058;-50
2022/03/07 00:36:48;;;;;;;6.28;2.80;;;;;;;0.56;100.00;94662.44;5107560;28;22006;-48
2022/03/07 00:39:14;;;;;;;4.90;2.75;;;;;;;0.53;100.00;94653.31;5109967;28;20036;-45
2022/03/07 00:41:43;;;;;;;7.65;3.22;;;;;;;0.55;100.00;94655.72;5094524;28;21668;-46
2022/03/07 00:44:09;;;;;;;5.72;3.38;;;;;;;0.57;100.00;94649.44;5107690;28;20050;-45
2022/03/07 00:46:37;;;;;;;4.90;2.90;;;;;;;0.45;100.00;94634.66;5108722;28;20051;-46
2022/03/07 00:49:04;;;;;;;5.63;3.17;;;;;;;0.63;100.00;94654.84;5109620;28;20122;-47
2022/03/07 00:51:31;;;;;;;5.65;3.20;;;;;;;0.68;100.00;94644.88;5096441;28;20068;-46
2022/03/07 00:53:58;;;;;;;8.10;4.22;;;;;;;0.68;100.00;94650.00;5118868;27;20035;-45
2022/03/07 00:56:25;;;;;;;6.22;3.40;;;;;;;0.69;100.00;94643.91;5123169;27;20572;-51
2022/03/07 00:58:52;;;;;;;8.40;4.00;;;;;;;0.73;100.00;94647.72;5101546;27;20044;-50
2022/03/07 01:01:19;;;;;;;5.55;3.42;;;;;;;0.74;100.00;94650.09;5099678;27;20049;-47
2022/03/07 01:03:48;;;;;;;6.50;3.10;;;;;;;0.70;100.00;94642.94;5119294;27;20043;-47
2022/03/07 01:06:15;;;;;;;6.85;3.65;;;;;;;0.77;100.00;94651.50;5115098;27;20058;-45
2022/03/07 01:08:42;;;;;;;6.88;3.63;;;;;;;0.78;100.00;94642.88;5097551;28;20042;-47
2022/03/07 01:11:10;;;;;;;8.43;3.90;;;;;;;0.72;100.00;94630.72;5095839;27;20039;-51
2022/03/07 01:13:37;;;;;;;4.35;2.80;;;;;;;0.77;100.00;94631.00;5101101;27;20409;-51
2022/03/07 01:16:04;;;;;;;6.10;3.53;;;;;;;0.74;100.00;94626.25;5097585;27;20067;-47
2022/03/07 01:18:31;;;;;;;6.45;3.53;;;;;;;0.70;100.00;94623.25;5116940;27;20043;-46
2022/03/07 01:20:57;;;;;;;6.88;3.78;;;;;;;0.68;100.00;94608.97;5120206;27;20035;-45
2022/03/07 01:23:24;;;;;;;10.50;3.47;;;;;;;0.76;100.00;94621.75;5119470;27;20043;-47
2022/03/07 01:25:51;;;;;;;7.85;4.00;;;;;;;0.74;100.00;94618.56;5122372;27;20043;-46
2022/03/07 01:28:20;;;;;;;6.55;4.20;;;;;;;0.66;100.00;94616.06;5097097;27;20054;-50
2022/03/07 01:30:48;;;;;;;7.60;4.20;;;;;;;0.59;100.00;94630.53;5116132;27;20524;-50
2022/03/07 01:33:14;;;;;;;5.03;3.20;;;;;;;0.57;100.00;94623.03;5098147;27;20043;-48
2022/03/07 01:35:41;;;;;;;6.93;3.65;;;;;;;0.51;100.00;94624.50;5096405;27;20067;-49
2022/03/07 01:38:08;;;;;;;7.15;4.22;;;;;;;0.53;100.00;94627.69;5121968;27;20071;-48
2022/03/07 01:40:35;;;;;;;6.53;3.42;;;;;;;0.46;100.00;94631.91;5102360;27;20043;-47
2022/03/07 01:43:02;;;;;;;10.13;5.05;;;;;;;0.27;100.00;94634.94;5118303;27;20038;-46
2022/03/07 01:45:29;;;;;;;14.60;6.95;;;;;;;0.29;100.00;94640.69;5114052;27;20035;-47
2022/03/07 01:47:56;;;;;;;12.18;6.40;;;;;;;0.31;100.00;94631.09;5118081;27;20040;-50
2022/03/07 01:50:23;;;;;;;11.43;5.88;;;;;;;0.38;100.00;94634.56;5101010;27;20047;-51
2022/03/07 01:52:55;;;;;;;13.30;6.05;;;;;;;0.42;100.00;94635.81;5094887;27;20067;-47
2022/03/07 01:55:23;;;;;;;14.15;7.07;;;;;;;0.46;100.00;94634.47;5099880;27;20047;-46
2022/03/07 01:57:53;;;;;;;11.73;5.97;;;;;;;0.52;100.00;94641.50;5098535;27;20050;-46
2022/03/07 02:00:22;;;;;;;14.75;6.28;;;;;;;0.46;100.00;94631.13;5117668;27;20074;-49
2022/03/07 02:02:50;;;;;;;9.07;5.25;;;;;;;0.50;100.00;94633.16;5120337;27;20055;-47
2022/03/07 02:05:25;;;;;;;10.30;4.97;;;;;;;0.49;100.00;94630.78;5094971;27;20465;-52
2022/03/07 02:07:58;;;;;;;9.93;4.68;;;;;;;0.53;100.00;94622.56;5110965;27;20047;-47
2022/03/07 02:10:28;;;;;;;10.65;4.13;;;;;;;0.50;100.00;94622.13;5097403;27;20405;-49
2022/03/07 02:12:58;;;;;;;9.82;4.30;;;;;;;0.40;100.00;94612.13;5100731;27;20052;-49
2022/03/07 02:15:25;;;;;;;9.07;4.60;;;;;;;0.47;100.00;94620.72;5119530;27;20133;-47
2022/03/07 02:17:54;;;;;;;8.15;4.25;;;;;;;0.49;100.00;94623.91;5099465;27;20050;-48
2022/03/07 02:20:21;;;;;;;8.02;4.22;;;;;;;0.42;100.00;94620.44;5118736;27;20039;-46
2022/03/07 02:22:48;;;;;;;9.85;4.40;;;;;;;0.30;100.00;94607.22;5097066;27;20043;-47
2022/03/07 02:25:15;;;;;;;9.98;4.47;;;;;;;0.31;100.00;94620.84;5097950;27;20043;-48
2022/03/07 02:27:42;;;;;;;9.80;4.72;;;;;;;0.24;100.00;94614.81;5093165;27;20058;-46
2022/03/07 02:30:10;;;;;;;7.15;4.03;;;;;;;0.17;100.00;94612.94;5101356;27;20490;-47
2022/03/07 02:32:43;;;;;;;7.00;3.47;;;;;;;0.18;100.00;94618.84;5098768;27;20846;-46
2022/03/07 02:35:12;;;;;;;4.93;3.53;;;;;;;0.15;100.00;94614.09;5095541;27;20570;-48
2022/03/07 02:37:41;;;;;;;5.47;3.10;;;;;;;0.11;100.00;94613.63;5098750;27;20137;-47
2022/03/07 02:40:12;;;;;;;7.45;3.70;;;;;;;0.06;100.00;94615.91;5101169;27;20051;-48
2022/03/07 02:42:59;;;;;;;5.18;2.65;;;;;;;0.05;100.00;94603.25;5118493;27;20045;-49
2022/03/07 02:45:27;;;;;;;5.00;3.08;;;;;;;0.04;100.00;94617.84;5094436;27;20046;-47
2022/03/07 02:47:53;;;;;;;5.18;2.58;;;;;;;0.08;100.00;94613.97;5097970;27;20051;-49
2022/03/07 02:50:20;;;;;;;4.88;3.13;;;;;;;0.13;100.00;94616.81;5114326;27;20509;-50
2022/03/07 02:52:47;;;;;;;8.07;3.80;;;;;;;0.17;100.00;94618.06;5120196;27;20043;-50
2022/03/07 02:55:14;;;;;;;6.90;3.30;;;;;;;0.21;100.00;94618.50;5113747;27;20055;-48
2022/03/07 02:57:40;;;;;;;5.03;2.92;;;;;;;0.24;100.00;94617.38;5118412;27;20093;-47
2022/03/07 03:00:08;;;;;;;7.82;4.15;;;;;;;0.25;100.00;94616.41;5113099;27;20570;-46
2022/03/07 03:02:35;;;;;;;7.60;3.83;;;;;;;0.26;100.00;94615.44;5118722;27;20051;-45
2022/03/07 03:05:01;;;;;;;4.05;2.58;;;;;;;0.29;100.00;94615.06;5114773;27;20567;-47
2022/03/07 03:07:28;;;;;;;4.43;2.28;;;;;;;0.27;100.00;94617.84;5109671;27;20497;-46
2022/03/07 03:09:55;;;;;;;5.57;2.85;;;;;;;0.27;100.00;94617.00;5116292;27;20184;-46
2022/03/07 03:12:24;;;;;;;5.32;3.00;;;;;;;0.28;100.00;94613.50;5119034;27;20434;-48
2022/03/07 03:14:51;;;;;;;4.60;2.58;;;;;;;0.32;100.00;94619.88;5116258;27;20047;-45
2022/03/07 03:17:18;;;;;;;9.43;3.83;;;;;;;0.33;100.00;94621.47;5117743;27;20051;-46
2022/03/07 03:19:45;;;;;;;5.53;2.85;;;;;;;0.33;100.00;94626.59;5114747;27;20067;-49
2022/03/07 03:22:11;;;;;;;6.88;3.22;;;;;;;0.36;100.00;94618.53;5118565;27;20050;-50
2022/03/07 03:24:38;;;;;;;5.75;2.92;;;;;;;0.38;100.00;94626.88;5116348;27;20047;-51
2022/03/07 03:27:05;;;;;;;7.50;3.58;;;;;;;0.41;100.00;94628.28;5112860;27;20112;-49
2022/03/07 03:29:32;;;;;;;5.95;3.50;;;;;;;0.38;100.00;94626.88;5118483;27;20085;-46
2022/03/07 03:31:59;;;;;;;5.53;3.15;;;;;;;0.42;100.00;94624.78;5120774;27;20795;-48
2022/03/07 03:34:26;;;;;;;7.30;3.15;;;;;;;0.42;100.00;94630.69;5116826;27;20063;-46
2022/03/07 03:36:56;;;;;;;9.93;5.22;;;;;;;0.47;100.00;94627.59;5116091;27;20066;-45
2022/03/07 03:39:23;;;;;;;11.57;5.50;;;;;;;0.44;100.00;94625.38;5119379;27;20058;-47
2022/03/07 03:41:50;;;;;;;6.95;4.10;;;;;;;0.48;100.00;94624.84;5114273;27;20062;-47
2022/03/07 03:44:17;;;;;;;9.25;5.55;;;;;;;0.53;100.00;94627.69;5111165;27;20516;-46
2022/03/07 03:46:44;;;;;;;4.85;3.53;;;;;;;0.56;100.00;94627.34;5111104;27;20043;-47
2022/03/07 03:49:10;;;;;;;6.45;3.60;;;;;;;0.49;100.00;94616.22;5113558;27;20035;-47
2022/03/07 03:51:37;;;;;;;7.07;4.07;;;;;;;0.54;100.00;94624.19;5114439;27;20045;-46
2022/03/07 03:54:04;;;;;;;6.38;3.55;;;;;;;0.50;100.00;94627.25;5117478;28;20047;-47
2022/03/07 03:56:31;;;;;;;6.78;3.85;;;;;;;0.48;100.00;94624.84;5117322;28;20059;-51
2022/03/07 03:58:58;;;;;;;5.25;2.88;;;;;;;0.48;100.00;94627.41;5112923;28;20136;-46
2022/03/07 04:01:24;;;;;;;7.00;3.72;;;;;;;0.50;100.00;94622.91;5116979;28;20104;-52
2022/03/07 04:03:51;;;;;;;6.03;3.03;;;;;;;0.46;100.00;94631.91;5117032;28;20031;-51
2022/03/07 04:06:18;;;;;;;5.70;3.00;;;;;;;0.48;100.00;94619.72;5113531;28;20051;-45
2022/03/07 04:08:51;;;;;;;5.32;2.75;;;;;;;0.47;100.00;94623.28;5116134;28;20100;-46
2022/03/07 04:11:44;;;;;;;5.30;2.70;;;;;;;0.41;100.00;94618.03;5111822;28;20083;-50
2022/03/07 04:14:12;;;;;;;5.75;3.03;;;;;;;0.44;100.00;94626.19;5110029;28;20105;-45
2022/03/07 04:16:39;;;;;;;5.35;3.10;;;;;;;0.42;100.00;94625.56;5114938;28;20046;-48
2022/03/07 04:19:07;;;;;;;6.18;3.85;;;;;;;0.41;100.00;94629.06;5113038;28;20043;-46
2022/03/07 04:21:35;;;;;;;5.68;3.17;;;;;;;0.41;100.00;94623.94;5095269;28;20849;-45
2022/03/07 04:24:02;;;;;;;6.50;3.28;;;;;;;0.44;100.00;94631.31;5117318;28;20043;-50
2022/03/07 04:26:29;;;;;;;9.07;3.15;;;;;;;0.40;100.00;94627.50;5116591;28;20043;-47
2022/03/07 04:28:56;;;;;;;5.78;3.10;;;;;;;0.30;100.00;94622.59;5121804;27;20115;-45
2022/03/07 04:31:23;;;;;;;5.40;2.85;;;;;;;0.32;100.00;94622.44;5115102;27;20107;-46
2022/03/07 04:33:49;;;;;;;5.50;3.42;;;;;;;0.29;100.00;94625.31;5115179;27;20052;-47
2022/03/07 04:36:20;;;;;;;8.05;3.40;;;;;;;0.30;100.00;94621.81;5117111;27;20036;-45
2022/03/07 04:38:46;;;;;;;9.25;4.03;;;;;;;0.30;100.00;94629.50;5116929;27;20047;-51
2022/03/07 04:41:13;;;;;;;24.30;10.18;;;;;;;0.20;100.00;94622.06;5120467;27;20043;-46
2022/03/07 04:43:40;;;;;;;16.33;9.27;;;;;;;0.24;100.00;94632.75;5118336;27;20040;-49
2022/03/07 04:46:10;;;;;;;18.98;8.57;;;;;;;0.12;100.00;94615.19;5121462;27;20137;-51
2022/03/07 04:48:37;;;;;;;28.33;13.75;;;;;;;0.17;100.00;94628.28;5118108;27;20507;-45
2022/03/07 04:51:04;;;;;;;10.90;4.60;;;;;;;0.17;100.00;94617.25;5125885;27;20047;-51
2022/03/07 04:53:31;;;;;;;8.10;4.55;;;;;;;0.25;100.00;94629.19;5115123;27;20059;-46
2022/03/07 04:55:58;;;;;;;21.33;7.97;;;;;;;0.18;100.00;94619.66;5117742;27;20047;-51
2022/03/07 04:58:25;;;;;;;44.15;15.88;;;;;;;0.30;100.00;94637.19;5118077;27;20040;-48
2022/03/07 05:00:55;;;;;;;40.50;13.77;;;;;;;0.31;100.00;94634.44;5117966;27;20134;-48
2022/03/07 05:03:22;;;;;;;97.22;42.42;;;;;;;0.37;100.00;94638.09;5116651;27;20043;-50
2022/03/07 05:05:49;;;;;;;54.40;24.35;;;;;;;0.32;100.00;94628.34;5119722;27;20051;-46
2022/03/07 05:08:17;;;;;;;76.53;36.53;;;;;;;0.36;100.00;94633.91;5114064;27;20104;-53
2022/03/07 05:10:44;;;;;;;23.95;12.98;;;;;;;0.36;100.00;94631.34;5117857;27;20433;-48
2022/03/07 05:13:11;;;;;;;20.58;9.75;;;;;;;0.34;100.00;94633.28;5113520;27;20719;-48
2022/03/07 05:15:38;;;;;;;19.30;9.95;;;;;;;0.37;100.00;94633.75;5115198;27;20043;-50
2022/03/07 05:18:06;;;;;;;31.95;15.90;;;;;;;0.43;100.00;94639.94;5118458;27;20109;-47
2022/03/07 05:20:33;;;;;;;25.45;13.05;;;;;;;0.48;100.00;94645.34;5114258;27;20063;-46
2022/03/07 05:23:20;;;;;;;35.15;17.73;;;;;;;0.46;100.00;94641.38;5116055;27;20112;-47
2022/03/07 05:25:46;;;;;;;35.08;17.50;;;;;;;0.47;100.00;94638.66;5116860;27;20032;-47
2022/03/07 05:28:13;;;;;;;48.53;25.60;;;;;;;0.48;100.00;94635.09;5118309;27;20509;-49
2022/03/07 05:30:40;;;;;;;23.13;11.82;;;;;;;0.48;100.00;94636.88;5123889;27;20112;-49
2022/03/07 05:33:07;;;;;;;14.32;8.23;;;;;;;0.50;100.00;94638.28;5118121;27;20043;-45
2022/03/07 05:35:34;;;;;;;7.85;4.18;;;;;;;0.51;100.00;94634.75;5117304;27;20039;-47
2022/03/07 05:38:01;;;;;;;6.15;3.47;;;;;;;0.51;100.00;94639.09;5122676;27;20046;-47
2022/03/07 05:40:27;;;;;;;7.60;3.83;;;;;;;0.49;100.00;94626.47;5115292;27;20043;-45
2022/03/07 05:42:54;;;;;;;7.45;5.00;;;;;;;0.58;100.00;94634.88;5116543;27;20047;-47
2022/03/07 05:45:21;;;;;;;8.93;4.88;;;;;;;0.66;100.00;94634.78;5119018;27;20027;-48
2022/03/07 05:47:48;;;;;;;13.10;6.65;;;;;;;0.73;100.00;94645.16;5118961;27;20047;-48
2022/03/07 05:50:15;;;;;;;8.63;4.90;;;;;;;0.79;100.00;94636.75;5116883;27;20107;-50
2022/03/07 05:52:42;;;;;;;6.60;4.25;;;;;;;0.87;100.00;94634.13;5113617;27;20047;-51
2022/03/07 05:55:10;;;;;;;8.80;5.10;;;;;;;0.97;100.00;94633.06;5118353;27;20040;-50
2022/03/07 05:57:37;;;;;;;10.32;6.40;;;;;;;1.13;100.00;94643.16;5113116;27;20035;-48
2022/03/07 06:00:07;;;;;;;11.93;6.35;;;;;;;1.27;100.00;94639.78;5119258;27;20103;-48
2022/03/07 06:02:34;;;;;;;13.55;7.20;;;;;;;1.39;100.00;94631.63;5121539;27;20412;-51
2022/03/07 06:05:03;;;;;;;15.27;8.90;;;;;;;1.51;100.00;94641.28;5116686;27;20039;-48
2022/03/07 06:07:30;;;;;;;11.57;7.78;;;;;;;1.62;100.00;94641.78;5118830;27;20061;-48
2022/03/07 06:09:57;;;;;;;11.85;8.00;;;;;;;1.66;100.00;94636.13;5115664;27;20039;-48
2022/03/07 06:12:26;;;;;;;32.15;20.80;;;;;;;1.78;100.00;94635.66;5119793;27;20528;-46
2022/03/07 06:14:54;;;;;;;16.73;10.90;;;;;;;1.85;100.00;94632.16;5115363;27;20036;-48
2022/03/07 06:17:21;;;;;;;12.85;7.05;;;;;;;1.95;100.00;94626.75;5117318;27;20043;-46
2022/03/07 06:19:48;;;;;;;12.27;5.18;;;;;;;2.03;100.00;94634.31;5119886;27;20504;-46
2022/03/07 06:22:15;;;;;;;7.57;3.65;;;;;;;2.12;100.00;94629.09;5121049;27;20061;-47
2022/03/07 06:24:42;;;;;;;24.35;17.38;;;;;;;2.23;100.00;94633.72;5113655;27;20416;-47
2022/03/07 06:27:09;;;;;;;18.08;11.25;;;;;;;2.32;100.00;94632.63;5116789;27;20039;-46
2022/03/07 06:29:36;;;;;;;22.20;16.15;;;;;;;2.38;100.00;94631.91;5115617;27;20059;-47
2022/03/07 06:32:03;;;;;;;9.27;5.47;;;;;;;2.49;100.00;94644.25;5115144;27;20469;-50
2022/03/07 06:34:33;;;;;;;11.68;7.10;;;;;;;2.59;100.00;94645.72;5111125;27;20485;-46
2022/03/07 06:37:00;;;;;;;14.25;8.43;;;;;;;2.74;100.00;94643.84;5117495;27;20046;-51
2022/03/07 06:39:27;;;;;;;15.27;7.03;;;;;;;2.84;100.00;94646.09;5119080;27;20035;-51
2022/03/07 06:41:55;;;;;;;13.00;5.43;;;;;;;2.89;100.00;94653.25;5112526;27;20424;-50
2022/03/07 06:44:23;;;;;;;27.48;17.35;;;;;;;2.94;100.00;94653.50;5114809;27;20454;-48
2022/03/07 06:46:50;;;;;;;21.58;13.13;;;;;;;2.98;100.00;94647.00;5114380;27;20043;-50
2022/03/07 06:49:17;;;;;;;14.45;7.40;;;;;;;3.08;100.00;94647.47;5115817;27;20044;-48
2022/03/07 06:51:44;;;;;;;18.85;6.90;;;;;;;3.28;100.00;94639.84;5114817;27;20124;-47
2022/03/07 06:54:11;;;;;;;20.25;9.52;;;;;;;3.49;100.00;94644.09;5111145;27;20043;-46
2022/03/07 06:56:38;;;;;;;9.88;6.00;;;;;;;3.64;100.00;94647.34;5110537;27;20416;-47
2022/03/07 06:59:04;;;;;;;19.45;10.10;;;;;;;3.78;100.00;94649.97;5114280;27;20043;-49
2022/03/07 07:01:31;;;;;;;22.00;9.18;;;;;;;3.88;98.85;94652.97;5113474;27;20050;-51
2022/03/07 07:03:59;;;;;;;16.20;9.18;;;;;;;3.93;97.41;94650.63;5116810;27;20040;-51
2022/03/07 07:06:25;;;;;;;9.50;6.15;;;;;;;3.97;97.51;94646.66;5113834;27;20043;-46
2022/03/07 07:08:52;;;;;;;12.38;6.78;;;;;;;4.07;97.01;94635.19;5113828;27;22707;-48
2022/03/07 07:11:19;;;;;;;10.38;5.10;;;;;;;4.17;96.42;94635.59;5112359;27;20130;-50
2022/03/07 07:13:46;;;;;;;13.80;5.93;;;;;;;4.33;95.78;94650.69;5114152;27;20056;-50
2022/03/07 07:16:12;;;;;;;19.75;6.63;;;;;;;4.42;95.38;94645.38;5116121;27;20092;-50
2022/03/07 07:18:40;;;;;;;43.40;22.20;;;;;;;4.55;94.73;94645.38;5116212;27;20126;-52
2022/03/07 07:21:07;;;;;;;32.30;15.95;;;;;;;4.64;94.92;94651.13;5116332;27;20401;-53
2022/03/07 07:23:34;;;;;;;77.10;42.45;;;;;;;4.30;92.89;94645.16;5111695;27;20047;-47
2022/03/07 07:26:01;;;;;;;39.40;19.90;;;;;;;4.47;93.60;94655.91;5115955;27;20054;-49
2022/03/07 07:28:28;;;;;;;36.83;21.02;;;;;;;4.56;94.11;94650.34;5116380;27;20432;-48
2022/03/07 07:30:55;;;;;;;12.45;8.45;;;;;;;4.63;94.46;94646.97;5112949;27;20508;-48
2022/03/07 07:33:22;;;;;;;32.58;20.10;;;;;;;4.45;93.74;94657.84;5112855;27;20488;-47
2022/03/07 07:35:49;;;;;;;12.13;8.00;;;;;;;4.10;92.95;94660.56;5115653;27;20458;-48
2022/03/07 07:38:15;;;;;;;12.57;8.73;;;;;;;3.61;95.23;94663.19;5115204;27;20092;-48
2022/03/07 07:40:42;;;;;;;16.67;8.55;;;;;;;3.73;96.44;94670.38;5113796;27;20120;-48
2022/03/07 07:43:09;;;;;;;17.30;9.40;;;;;;;3.73;96.77;94663.44;5114676;27;20589;-50
2022/03/07 07:45:36;;;;;;;31.48;16.58;;;;;;;3.60;95.76;94666.75;5112537;27;20465;-50
2022/03/07 07:48:03;;;;;;;17.55;9.57;;;;;;;3.25;96.64;94669.31;5120353;27;20100;-48
2022/03/07 07:50:30;;;;;;;11.63;6.00;;;;;;;2.91;98.27;94666.72;5111977;28;20043;-50
2022/03/07 07:52:57;;;;;;;9.13;5.63;;;;;;;3.03;98.94;94667.81;5113107;27;20059;-49
2022/03/07 07:55:24;;;;;;;42.58;17.48;;;;;;;3.08;98.78;94657.75;5110110;27;20036;-46
2022/03/07 07:57:51;;;;;;;15.30;8.10;;;;;;;3.34;99.30;94658.88;5105915;28;20123;-47
2022/03/07 08:00:22;;;;;;;25.52;12.18;;;;;;;3.58;99.61;94673.88;5087400;28;20071;-47
2022/03/07 08:02:50;;;;;;;14.35;8.68;;;;;;;3.84;98.95;94674.97;5116418;27;20051;-48
2022/03/07 08:05:18;;;;;;;14.38;7.57;;;;;;;4.10;98.20;94670.88;5117762;27;20045;-50
2022/03/07 08:07:46;;;;;;;16.45;9.57;;;;;;;4.26;97.13;94669.75;5116669;27;20455;-47
2022/03/07 08:10:16;;;;;;;15.50;7.38;;;;;;;4.19;95.07;94664.56;5117498;27;20043;-49
2022/03/07 08:12:43;;;;;;;7.45;4.63;;;;;;;3.61;94.70;94667.53;5120492;27;20127;-47
2022/03/07 08:15:16;;;;;;;10.98;5.78;;;;;;;3.80;95.36;94666.03;5117704;27;20402;-46
2022/03/07 08:17:49;;;;;;;9.25;4.72;;;;;;;3.62;95.49;94669.94;5115861;27;20046;-47
2022/03/07 08:20:18;;;;;;;12.00;6.68;;;;;;;3.55;96.87;94668.31;5115713;27;20048;-46
2022/03/07 08:22:46;;;;;;;10.55;4.78;;;;;;;3.49;98.57;94669.84;5111225;27;20431;-48
2022/03/07 08:25:13;;;;;;;11.02;5.10;;;;;;;3.58;97.76;94668.72;5120517;27;20035;-46
2022/03/07 08:27:40;;;;;;;11.95;5.35;;;;;;;3.40;97.38;94671.00;5115314;27;20047;-47
2022/03/07 08:30:10;;;;;;;12.05;4.97;;;;;;;3.12;98.38;94674.41;5112361;27;20048;-47
2022/03/07 08:32:38;;;;;;;21.00;9.50;;;;;;;3.03;99.51;94673.75;5105871;27;20036;-46
2022/03/07 08:35:06;;;;;;;13.70;7.32;;;;;;;3.06;99.95;94680.28;5111773;27;20038;-47
2022/03/07 08:37:40;;;;;;;10.15;5.97;;;;;;;3.00;99.58;94681.03;5109391;27;20052;-46
2022/03/07 08:40:08;;;;;;;9.00;5.68;;;;;;;2.47;100.00;94677.06;5092019;27;20044;-46
2022/03/07 08:42:36;;;;;;;8.68;5.13;;;;;;;2.51;100.00;94681.84;5111528;27;20508;-48
2022/03/07 08:45:04;;;;;;;10.48;6.70;;;;;;;2.43;100.00;94686.13;5110315;27;20051;-46
2022/03/07 08:47:32;;;;;;;11.88;8.88;;;;;;;2.66;100.00;94679.97;5107156;27;20451;-46
2022/03/07 08:49:59;;;;;;;10.15;5.68;;;;;;;2.61;100.00;94684.88;5110557;27;20038;-51
2022/03/07 08:52:25;;;;;;;14.27;6.65;;;;;;;2.77;100.00;94682.03;5116910;27;20039;-49
2022/03/07 08:54:52;;;;;;;19.20;7.10;;;;;;;2.91;100.00;94677.03;5112475;27;20536;-46
2022/03/07 08:57:19;;;;;;;11.02;4.72;;;;;;;3.08;100.00;94678.34;5113218;27;20411;-47
2022/03/07 08:59:46;;;;;;;9.10;5.90;;;;;;;3.31;99.26;94680.63;5110884;27;20047;-47
2022/03/07 09:02:13;;;;;;;8.73;4.35;;;;;;;3.37;97.75;94681.69;5117961;27;20075;-47
2022/03/07 09:04:43;;;;;;;7.97;4.82;;;;;;;3.31;97.92;94679.84;5123621;27;20455;-47
2022/03/07 09:07:10;;;;;;;10.77;5.90;;;;;;;3.36;97.40;94680.09;5112851;27;20117;-47
2022/03/07 09:09:37;;;;;;;12.13;6.10;;;;;;;3.40;97.50;94681.28;5117029;27;20054;-47
2022/03/07 09:12:05;;;;;;;12.20;6.47;;;;;;;3.64;97.25;94683.41;5121433;27;20036;-46
2022/03/07 09:14:32;;;;;;;11.68;6.00;;;;;;;3.80;96.44;94686.66;5113362;27;20463;-46
2022/03/07 09:16:58;;;;;;;11.90;6.55;;;;;;;3.75;96.39;94668.41;5118765;27;20046;-47
2022/03/07 09:19:26;;;;;;;10.95;5.55;;;;;;;3.99;97.00;94675.59;5120235;27;20043;-48
2022/03/07 09:21:53;;;;;;;9.70;6.38;;;;;;;4.18;96.62;94679.25;5112300;27;20047;-46
2022/03/07 09:24:20;;;;;;;14.20;7.97;;;;;;;4.25;96.31;94681.84;5110141;27;22446;-51
2022/03/07 09:26:47;;;;;;;16.70;8.88;;;;;;;4.39;95.20;94673.16;5101657;27;20429;-47
2022/03/07 09:29:14;;;;;;;16.52;8.05;;;;;;;4.46;94.98;94659.47;5115344;27;20115;-46
2022/03/07 09:31:41;;;;;;;13.45;6.75;;;;;;;4.64;95.23;94662.25;5116355;27;20051;-49
2022/03/07 09:34:10;;;;;;;12.60;6.88;;;;;;;5.00;94.70;94676.53;5110641;27;20496;-49
2022/03/07 09:36:37;;;;;;;14.57;7.75;;;;;;;5.05;92.21;94669.00;5113142;27;20039;-49
2022/03/07 09:39:05;;;;;;;20.63;9.85;;;;;;;5.05;92.23;94669.00;5111320;27;20047;-46
2022/03/07 09:41:32;;;;;;;15.55;7.68;;;;;;;5.15;92.22;94658.28;5105871;27;20547;-47
2022/03/07 09:43:59;;;;;;;16.08;7.55;;;;;;;4.99;89.76;94669.81;5106926;27;20047;-45
2022/03/07 09:46:26;;;;;;;16.83;9.07;;;;;;;5.11;92.67;94663.03;5110890;27;20051;-46
2022/03/07 09:48:53;;;;;;;15.15;7.00;;;;;;;4.93;91.03;94660.25;5106719;27;20043;-47
2022/03/07 09:51:20;;;;;;;12.20;6.93;;;;;;;4.90;91.29;94660.69;5099653;27;20063;-47
2022/03/07 09:53:47;;;;;;;15.52;7.53;;;;;;;4.82;93.56;94659.06;5110972;27;20055;-48
2022/03/07 09:56:14;;;;;;;16.67;8.07;;;;;;;5.10;93.20;94651.13;5109547;27;20068;-49
2022/03/07 09:58:41;;;;;;;15.70;8.23;;;;;;;5.41;95.42;94652.25;5107815;27;20476;-50
2022/03/07 10:01:12;;;;;;;11.82;6.53;;;;;;;5.32;90.17;94650.88;5114423;27;22127;-46
2022/03/07 10:03:41;;;;;;;16.98;7.70;;;;;;;5.21;88.98;94646.34;5115908;27;20408;-46
2022/03/07 10:06:17;;;;;;;12.80;7.10;;;;;;;5.10;89.43;94652.91;5116867;27;20051;-50
2022/03/07 10:08:54;;;;;;;15.48;8.02;;;;;;;4.92;91.95;94658.69;5115867;27;20086;-49
2022/03/07 10:11:21;;;;;;;14.85;6.90;;;;;;;4.73;92.20;94645.56;5116439;27;20051;-52
2022/03/07 10:13:53;;;;;;;12.20;6.88;;;;;;;5.09;91.21;94656.47;5109351;27;20066;-48
2022/03/07 10:16:21;;;;;;;15.95;8.82;;;;;;;5.14;89.84;94647.13;5110245;27;20068;-50
2022/03/07 10:18:53;;;;;;;16.42;8.38;;;;;;;5.20;91.48;94655.06;5115753;27;20054;-46
2022/03/07 10:21:22;;;;;;;15.13;7.00;;;;;;;4.66;92.40;94655.09;5116487;27;20108;-47
2022/03/07 10:23:56;;;;;;;17.20;7.45;;;;;;;4.62;92.39;94653.91;5117676;27;20058;-50
2022/03/07 10:26:24;;;;;;;10.05;5.57;;;;;;;4.23;93.02;94652.88;5118274;27;20426;-48
2022/03/07 10:28:53;;;;;;;9.13;5.57;;;;;;;4.27;93.67;94648.09;5111445;27;20408;-48
2022/03/07 10:31:29;;;;;;;10.68;6.28;;;;;;;4.07;94.54;94641.16;5105471;27;20074;-47
2022/03/07 10:34:08;;;;;;;12.98;6.32;;;;;;;3.83;97.30;94645.84;5107861;27;20130;-49
2022/03/07 10:36:37;;;;;;;13.75;7.40;;;;;;;3.56;98.63;94654.44;5086334;27;20048;-47
2022/03/07 10:39:06;;;;;;;16.33;8.30;;;;;;;3.49;100.00;94649.25;5111097;27;20040;-47
2022/03/07 10:41:51;;;;;;;5.50;4.07;;;;;;;3.20;99.05;94640.00;5109237;27;20112;-47
2022/03/07 10:44:37;;;;;;;14.38;7.90;;;;;;;3.00;100.00;94648.38;5104154;27;20497;-47
2022/03/07 10:47:10;;;;;;;11.40;6.75;;;;;;;2.99;100.00;94646.00;5102636;27;20569;-47
2022/03/07 10:49:57;;;;;;;7.40;4.35;;;;;;;2.84;100.00;94641.75;5106210;27;20062;-48
2022/03/07 10:52:25;;;;;;;12.27;6.85;;;;;;;2.91;100.00;94641.00;5109232;27;20061;-49
2022/03/07 10:54:52;;;;;;;13.23;6.72;;;;;;;3.02;100.00;94643.06;5121923;27;20047;-48
2022/03/07 10:57:21;;;;;;;11.80;5.72;;;;;;;2.81;100.00;94626.69;5107710;27;20078;-47
2022/03/07 10:59:48;;;;;;;10.85;5.07;;;;;;;3.05;100.00;94642.69;5108499;27;20051;-46
2022/03/07 11:02:17;;;;;;;13.65;5.35;;;;;;;3.04;99.09;94630.78;5103346;27;20066;-51
2022/03/07 11:04:49;;;;;;;15.15;7.03;;;;;;;2.92;99.40;94642.56;5105026;27;20532;-46
2022/03/07 11:07:16;;;;;;;15.75;7.82;;;;;;;2.83;100.00;94639.38;5103982;27;20070;-48
2022/03/07 11:09:43;;;;;;;8.98;4.45;;;;;;;2.65;100.00;94632.91;5106411;27;20059;-49
2022/03/07 11:12:12;;;;;;;10.05;5.32;;;;;;;2.60;100.00;94635.25;5110345;27;20055;-47
2022/03/07 11:14:42;;;;;;;10.40;6.25;;;;;;;2.51;100.00;94627.84;5109679;27;20587;-46
2022/03/07 11:17:16;;;;;;;7.53;4.00;;;;;;;2.49;100.00;94628.81;5113088;27;20078;-48
2022/03/07 11:19:46;;;;;;;20.63;7.25;;;;;;;2.31;100.00;94619.97;5111267;27;20051;-49
2022/03/07 11:22:15;;;;;;;9.25;4.72;;;;;;;2.45;100.00;94617.31;5115543;27;20051;-46
2022/03/07 11:24:43;;;;;;;9.10;4.72;;;;;;;2.41;100.00;94623.81;5113143;27;20127;-47
2022/03/07 11:27:10;;;;;;;8.00;4.57;;;;;;;2.31;100.00;94623.34;5110341;27;20060;-46
2022/03/07 11:29:40;;;;;;;7.15;4.07;;;;;;;2.28;100.00;94621.13;5110385;27;20054;-46
2022/03/07 11:32:10;;;;;;;7.47;4.22;;;;;;;2.26;100.00;94623.09;5108541;27;20047;-48
2022/03/07 11:34:37;;;;;;;11.23;4.53;;;;;;;2.05;100.00;94616.16;5112909;27;20047;-48